Time;durP1;ratioP1;P1;durP2;ratioP2;P2;SDS_P1;SDS_P2;PMS_P1;PMS_P2;Temp;Humidity;BMP_temperature;BMP_pressure;BME280_temperature;BME280_humidity;BME280_pressure;Samples;Min_cycle;Max_cycle;Signal;HPM_P1;HPM_P2
2021/08/02 00:01:07;;;;;;;7.55;3.05;;;13.20;95.30;;;;;;5009364;28;20042;-55
2021/08/02 00:03:56;;;;;;;5.68;2.90;;;13.20;95.20;;;;;;4999341;28;20037;-54
2021/08/02 00:06:23;;;;;;;6.70;3.13;;;13.10;95.30;;;;;;5017398;28;20060;-55
2021/08/02 00:08:56;;;;;;;7.15;3.45;;;13.10;95.30;;;;;;5017017;28;20052;-54
2021/08/02 00:11:36;;;;;;;7.88;3.58;;;13.10;95.30;;;;;;5014652;28;20073;-51
2021/08/02 00:14:08;;;;;;;8.70;3.50;;;13.10;95.30;;;;;;5017070;28;20054;-52
2021/08/02 00:16:36;;;;;;;7.88;3.60;;;13.10;95.30;;;;;;5014870;28;20040;-53
2021/08/02 00:19:04;;;;;;;7.53;3.13;;;13.10;95.30;;;;;;5015899;28;20414;-52
2021/08/02 00:21:29;;;;;;;7.78;3.20;;;13.00;95.30;;;;;;5016864;28;20069;-51
2021/08/02 00:23:56;;;;;;;9.88;3.80;;;13.10;95.40;;;;;;5015968;28;20512;-54
2021/08/02 00:26:22;;;;;;;5.65;3.38;;;13.00;95.40;;;;;;5016157;28;20080;-54
2021/08/02 00:28:49;;;;;;;7.60;3.63;;;13.00;95.40;;;;;;5016803;28;20057;-53
2021/08/02 00:31:15;;;;;;;8.02;3.28;;;13.00;95.50;;;;;;5014922;28;20045;-51
2021/08/02 00:33:42;;;;;;;5.25;3.20;;;13.00;95.50;;;;;;5016308;28;20045;-54
2021/08/02 00:36:44;;;;;;;6.93;3.17;;;13.00;95.50;;;;;;5016554;28;20053;-53
2021/08/02 00:39:22;;;;;;;7.30;3.15;;;13.00;95.60;;;;;;5006415;28;20057;-53
2021/08/02 00:42:19;;;;;;;8.02;3.42;;;13.00;95.50;;;;;;5015343;28;20034;-52
2021/08/02 00:45:14;;;;;;;9.45;3.22;;;12.90;95.50;;;;;;4998777;28;20049;-53
2021/08/02 00:47:54;;;;;;;6.55;3.13;;;12.90;95.50;;;;;;5016723;28;20046;-53
2021/08/02 00:50:26;;;;;;;8.70;3.50;;;12.90;95.50;;;;;;4993359;28;20050;-55
2021/08/02 00:52:59;;;;;;;9.98;3.25;;;12.90;95.50;;;;;;4997443;28;20088;-50
2021/08/02 00:55:35;;;;;;;8.60;3.28;;;12.90;95.50;;;;;;5012586;28;20042;-50
2021/08/02 00:58:04;;;;;;;9.18;3.50;;;12.80;95.60;;;;;;4985834;28;20057;-51
2021/08/02 01:00:31;;;;;;;5.40;3.38;;;12.80;95.60;;;;;;5015449;28;20406;-54
2021/08/02 01:03:09;;;;;;;8.45;3.13;;;12.80;95.60;;;;;;4998244;28;20453;-55
2021/08/02 01:05:38;;;;;;;10.63;3.40;;;12.80;95.60;;;;;;5015073;28;20074;-49
2021/08/02 01:08:22;;;;;;;8.93;3.60;;;12.80;95.90;;;;;;5013631;28;20046;-51
2021/08/02 01:10:59;;;;;;;10.27;3.70;;;12.70;95.60;;;;;;5013155;28;20457;-53
2021/08/02 01:13:27;;;;;;;7.38;3.25;;;12.80;95.60;;;;;;4997826;28;20071;-55
2021/08/02 01:15:58;;;;;;;5.93;3.10;;;12.70;95.60;;;;;;4996036;28;20145;-54
2021/08/02 01:18:23;;;;;;;10.13;3.00;;;12.70;95.50;;;;;;5014479;28;20100;-52
2021/08/02 01:20:56;;;;;;;4.55;2.63;;;12.70;95.60;;;;;;5013111;28;20049;-49
2021/08/02 01:23:23;;;;;;;8.05;3.22;;;12.70;95.70;;;;;;4980041;28;20038;-52
2021/08/02 01:25:56;;;;;;;6.15;3.17;;;12.70;95.60;;;;;;5013590;28;20514;-53
2021/08/02 01:28:29;;;;;;;5.35;3.40;;;12.70;95.70;;;;;;5012590;28;20144;-51
2021/08/02 01:31:03;;;;;;;7.53;3.30;;;12.70;95.70;;;;;;5009813;28;20571;-53
2021/08/02 01:33:32;;;;;;;10.00;2.90;;;12.70;95.80;;;;;;4994959;28;20069;-51
2021/08/02 01:36:01;;;;;;;11.10;3.65;;;12.70;95.80;;;;;;5012320;28;20474;-53
2021/08/02 01:38:35;;;;;;;7.30;2.97;;;12.70;95.80;;;;;;5011789;28;20594;-50
2021/08/02 01:41:03;;;;;;;7.07;3.30;;;12.70;95.80;;;;;;5013461;28;20050;-51
2021/08/02 01:43:33;;;;;;;7.90;3.50;;;12.80;95.80;;;;;;4993122;28;20041;-52
2021/08/02 01:46:20;;;;;;;11.13;3.03;;;12.80;95.80;;;;;;5012974;28;20042;-53
2021/08/02 01:49:01;;;;;;;4.40;2.88;;;12.80;95.80;;;;;;5009634;28;20043;-50
2021/08/02 01:51:54;;;;;;;7.90;3.60;;;12.80;95.80;;;;;;4998101;28;20042;-53
2021/08/02 01:54:28;;;;;;;7.38;3.00;;;12.80;95.80;;;;;;5002178;28;20072;-53
2021/08/02 01:57:09;;;;;;;6.53;3.55;;;12.80;95.70;;;;;;5011170;28;20100;-53
2021/08/02 01:59:45;;;;;;;6.68;3.20;;;12.80;95.70;;;;;;4991514;28;20046;-53
2021/08/02 02:02:17;;;;;;;10.15;3.75;;;12.80;95.70;;;;;;5011661;28;20077;-51
2021/08/02 02:05:01;;;;;;;7.45;3.50;;;12.80;95.70;;;;;;5010858;28;20046;-53
2021/08/02 02:07:36;;;;;;;7.03;3.17;;;12.80;95.70;;;;;;4975843;28;20046;-53
2021/08/02 02:10:06;;;;;;;7.80;3.78;;;12.70;95.70;;;;;;4991133;28;20041;-53
2021/08/02 02:12:32;;;;;;;6.63;3.70;;;12.70;95.80;;;;;;5006042;28;20038;-54
2021/08/02 02:15:03;;;;;;;7.50;3.92;;;12.70;95.80;;;;;;4963501;28;20443;-54
2021/08/02 02:17:33;;;;;;;10.82;3.65;;;12.70;95.90;;;;;;4995007;28;20042;-50
2021/08/02 02:20:00;;;;;;;7.78;3.70;;;12.70;95.90;;;;;;5011707;28;20041;-54
2021/08/02 02:22:36;;;;;;;7.43;3.30;;;12.80;95.90;;;;;;5003584;28;20038;-53
2021/08/02 02:25:05;;;;;;;9.52;3.28;;;12.80;95.90;;;;;;4983719;28;20490;-50
2021/08/02 02:27:34;;;;;;;8.88;3.88;;;12.80;95.90;;;;;;5005751;28;20037;-54
2021/08/02 02:30:05;;;;;;;6.18;3.47;;;12.80;95.90;;;;;;5011323;28;20057;-52
2021/08/02 02:32:33;;;;;;;9.15;3.92;;;12.80;96.00;;;;;;4995079;28;20451;-54
2021/08/02 02:35:03;;;;;;;8.00;4.10;;;12.80;96.00;;;;;;4982894;28;20038;-53
2021/08/02 02:37:31;;;;;;;7.40;3.90;;;12.80;96.00;;;;;;5009174;28;20053;-54
2021/08/02 02:39:57;;;;;;;8.57;3.90;;;12.80;96.00;;;;;;5009934;28;20098;-53
2021/08/02 02:42:24;;;;;;;9.50;3.72;;;12.80;96.10;;;;;;5011636;28;20100;-54
2021/08/02 02:44:50;;;;;;;6.90;3.15;;;12.80;96.10;;;;;;5009851;28;20072;-51
2021/08/02 02:47:16;;;;;;;8.68;3.60;;;12.90;96.10;;;;;;5001884;28;20051;-53
2021/08/02 02:49:44;;;;;;;7.47;3.65;;;12.90;96.10;;;;;;5012785;28;20040;-50
2021/08/02 02:52:10;;;;;;;7.70;3.65;;;12.90;96.20;;;;;;5012462;28;20081;-52
2021/08/02 02:54:38;;;;;;;7.38;3.72;;;12.90;96.20;;;;;;5010951;28;20042;-52
2021/08/02 02:57:05;;;;;;;9.90;4.10;;;12.90;96.30;;;;;;5006578;28;20486;-52
2021/08/02 02:59:31;;;;;;;7.32;3.97;;;13.00;96.30;;;;;;5007076;28;20041;-50
2021/08/02 03:02:00;;;;;;;9.13;3.20;;;13.00;96.30;;;;;;5012971;28;20144;-51
2021/08/02 03:04:31;;;;;;;7.63;3.78;;;13.00;96.30;;;;;;4998372;28;20332;-50
2021/08/02 03:06:59;;;;;;;9.95;3.92;;;13.00;96.40;;;;;;5003953;28;20045;-55
2021/08/02 03:09:31;;;;;;;12.07;3.80;;;13.00;96.30;;;;;;5010264;28;20049;-54
2021/08/02 03:11:56;;;;;;;7.38;3.70;;;13.00;96.20;;;;;;4993027;28;20049;-53
2021/08/02 03:14:23;;;;;;;11.23;3.75;;;13.00;96.30;;;;;;5012695;28;20050;-51
2021/08/02 03:16:53;;;;;;;8.43;3.30;;;13.10;96.40;;;;;;5012532;28;20042;-50
2021/08/02 03:19:18;;;;;;;9.73;3.70;;;13.10;96.50;;;;;;4998626;28;20124;-53
2021/08/02 03:21:44;;;;;;;7.90;3.72;;;13.10;96.50;;;;;;5011530;28;20128;-52
2021/08/02 03:24:26;;;;;;;6.88;3.20;;;13.10;96.50;;;;;;5012000;28;20046;-53
2021/08/02 03:27:06;;;;;;;7.65;3.40;;;13.10;96.50;;;;;;4984141;28;20061;-53
2021/08/02 03:29:41;;;;;;;9.02;3.40;;;13.10;96.50;;;;;;5012127;28;20050;-53
2021/08/02 03:32:12;;;;;;;10.90;3.60;;;13.10;96.50;;;;;;4994730;28;20137;-50
2021/08/02 03:34:45;;;;;;;8.10;3.65;;;13.10;96.50;;;;;;5012937;28;20038;-54
2021/08/02 03:37:15;;;;;;;9.13;3.22;;;13.10;96.50;;;;;;5017057;28;20042;-54
2021/08/02 03:39:44;;;;;;;9.95;3.45;;;13.10;96.50;;;;;;5014544;28;20037;-51
2021/08/02 03:42:14;;;;;;;6.88;3.53;;;13.10;96.50;;;;;;4981769;28;20037;-51
2021/08/02 03:44:42;;;;;;;9.60;3.75;;;13.10;96.50;;;;;;5015062;28;20324;-53
2021/08/02 03:47:08;;;;;;;6.85;3.40;;;13.20;96.50;;;;;;5012874;28;20042;-51
2021/08/02 03:49:46;;;;;;;5.60;3.08;;;13.20;96.60;;;;;;5014938;28;20053;-52
2021/08/02 03:52:12;;;;;;;8.70;3.50;;;13.20;96.60;;;;;;5013809;28;20578;-52
2021/08/02 03:54:38;;;;;;;8.73;3.55;;;13.20;96.60;;;;;;5014886;28;20121;-52
2021/08/02 03:57:04;;;;;;;7.95;3.60;;;13.20;96.60;;;;;;5015368;28;20081;-54
2021/08/02 03:59:30;;;;;;;9.30;3.50;;;13.20;96.60;;;;;;5015144;28;20399;-53
2021/08/02 04:01:56;;;;;;;8.63;3.55;;;13.30;96.60;;;;;;5012844;28;20168;-53
2021/08/02 04:04:24;;;;;;;8.68;3.53;;;13.30;96.70;;;;;;5014811;28;20061;-52
2021/08/02 04:06:49;;;;;;;8.10;3.33;;;13.30;96.80;;;;;;5016231;28;20054;-50
2021/08/02 04:09:15;;;;;;;7.80;3.40;;;13.30;96.80;;;;;;5014804;28;20460;-53
2021/08/02 04:11:52;;;;;;;5.57;3.13;;;13.30;96.70;;;;;;5014677;28;20046;-50
2021/08/02 04:14:18;;;;;;;6.13;3.17;;;13.30;96.90;;;;;;5003753;28;20054;-53
2021/08/02 04:16:44;;;;;;;9.02;3.45;;;13.30;96.90;;;;;;5016153;28;20129;-52
2021/08/02 04:22:58;;;;;;;8.30;3.25;;;13.30;97.00;;;;;;4997681;28;20135;-51
2021/08/02 04:25:23;;;;;;;6.53;3.17;;;13.30;97.00;;;;;;5014415;28;20077;-51
2021/08/02 04:27:54;;;;;;;6.88;3.00;;;13.40;97.00;;;;;;5016051;28;20414;-51
2021/08/02 04:30:23;;;;;;;7.50;3.08;;;13.40;96.90;;;;;;5008469;28;20042;-55
2021/08/02 04:32:48;;;;;;;8.02;3.20;;;13.40;96.90;;;;;;5004197;28;20185;-54
2021/08/02 04:35:15;;;;;;;6.93;2.92;;;13.40;96.90;;;;;;5007551;28;20407;-52
2021/08/02 04:37:41;;;;;;;8.90;3.28;;;13.50;96.90;;;;;;5013030;28;20046;-53
2021/08/02 04:40:10;;;;;;;10.07;3.80;;;13.40;96.90;;;;;;5010188;28;20041;-55
2021/08/02 04:42:38;;;;;;;7.10;3.20;;;13.40;96.90;;;;;;5013845;28;20037;-54
2021/08/02 04:45:05;;;;;;;6.30;3.47;;;13.40;97.00;;;;;;5013992;28;20042;-53
2021/08/02 04:47:31;;;;;;;6.93;3.42;;;13.40;97.00;;;;;;5013662;28;20100;-53
2021/08/02 04:50:01;;;;;;;10.05;3.95;;;13.50;97.00;;;;;;5007834;28;20046;-52
2021/08/02 04:52:29;;;;;;;6.28;3.40;;;13.50;97.00;;;;;;4996207;28;20100;-53
2021/08/02 04:54:55;;;;;;;5.90;3.25;;;13.50;97.10;;;;;;5012563;28;20034;-53
2021/08/02 04:57:21;;;;;;;9.07;3.47;;;13.60;97.10;;;;;;5013243;28;20042;-53
2021/08/02 04:59:47;;;;;;;8.50;3.60;;;13.60;97.10;;;;;;4995719;28;20044;-50
2021/08/02 05:02:14;;;;;;;7.60;3.70;;;13.60;97.00;;;;;;4995508;28;20044;-50
2021/08/02 05:04:39;;;;;;;6.57;3.58;;;13.60;97.10;;;;;;5013535;28;20057;-51
2021/08/02 05:07:05;;;;;;;5.50;3.42;;;13.60;97.20;;;;;;5012986;28;20526;-54
2021/08/02 05:09:31;;;;;;;10.57;3.88;;;13.70;97.10;;;;;;5013447;28;20502;-54
2021/08/02 05:11:58;;;;;;;8.85;3.65;;;13.70;97.10;;;;;;5011646;28;20060;-51
2021/08/02 05:14:25;;;;;;;7.72;3.50;;;13.70;97.20;;;;;;4982285;28;20065;-53
2021/08/02 05:16:54;;;;;;;8.70;3.60;;;13.70;97.10;;;;;;5012336;28;20061;-53
2021/08/02 05:19:20;;;;;;;5.47;3.42;;;13.70;97.10;;;;;;4996619;28;20065;-54
2021/08/02 05:21:45;;;;;;;6.22;3.72;;;13.70;97.40;;;;;;5010093;28;20065;-51
2021/08/02 05:24:11;;;;;;;7.03;3.45;;;13.70;97.10;;;;;;5012423;28;20053;-49
2021/08/02 05:26:36;;;;;;;11.60;3.40;;;13.80;97.20;;;;;;5013263;28;20117;-52
2021/08/02 05:29:02;;;;;;;8.85;4.07;;;13.80;97.20;;;;;;5010894;28;20048;-50
2021/08/02 05:31:30;;;;;;;6.25;3.42;;;13.80;97.10;;;;;;5012895;28;20073;-53
2021/08/02 05:33:55;;;;;;;10.45;3.72;;;13.80;97.10;;;;;;5010090;28;20132;-53
2021/08/02 05:36:21;;;;;;;7.80;3.22;;;13.80;97.10;;;;;;5011484;28;20072;-53
2021/08/02 05:38:47;;;;;;;7.45;3.70;;;13.90;97.10;;;;;;5004661;28;20133;-51
2021/08/02 05:41:18;;;;;;;8.30;3.28;;;13.90;97.20;;;;;;4978366;28;20066;-53
2021/08/02 05:43:45;;;;;;;10.32;3.75;;;14.00;97.20;;;;;;5005378;28;20042;-53
2021/08/02 05:46:10;;;;;;;8.70;3.40;;;14.10;97.20;;;;;;5010989;28;20569;-53
2021/08/02 05:48:36;;;;;;;9.15;4.30;;;14.10;97.10;;;;;;5013248;28;20050;-54
2021/08/02 05:51:02;;;;;;;7.80;3.67;;;14.10;97.10;;;;;;5011700;28;20037;-54
2021/08/02 05:53:33;;;;;;;10.32;4.00;;;14.10;97.00;;;;;;5010909;28;20463;-52
2021/08/02 05:56:00;;;;;;;11.05;3.85;;;14.10;97.00;;;;;;4978828;28;20061;-54
2021/08/02 05:58:30;;;;;;;8.73;3.88;;;14.20;97.00;;;;;;5009574;28;20076;-52
2021/08/02 06:00:55;;;;;;;8.20;3.35;;;14.20;96.90;;;;;;5012017;28;20062;-53
2021/08/02 06:03:21;;;;;;;8.02;3.70;;;14.20;96.80;;;;;;5010954;28;20077;-54
2021/08/02 06:05:47;;;;;;;7.80;3.40;;;14.30;96.80;;;;;;5012686;28;20078;-54
2021/08/02 06:08:14;;;;;;;8.45;3.97;;;14.30;96.70;;;;;;5006827;28;20140;-52
2021/08/02 06:10:40;;;;;;;8.65;3.75;;;14.30;96.70;;;;;;4985864;28;20057;-51
2021/08/02 06:13:06;;;;;;;9.45;3.92;;;14.30;96.70;;;;;;5008115;28;20045;-53
2021/08/02 06:15:33;;;;;;;9.00;3.55;;;14.30;96.70;;;;;;5007787;28;20037;-53
2021/08/02 06:17:59;;;;;;;9.85;3.70;;;14.30;96.80;;;;;;5011738;28;20105;-50
2021/08/02 06:20:25;;;;;;;6.53;3.50;;;14.40;96.80;;;;;;5010712;28;20112;-52
2021/08/02 06:22:51;;;;;;;9.88;3.55;;;14.40;96.70;;;;;;5012041;28;20664;-51
2021/08/02 06:25:17;;;;;;;7.57;3.33;;;14.50;96.70;;;;;;5012574;28;20080;-54
2021/08/02 06:27:43;;;;;;;8.40;3.42;;;14.50;96.60;;;;;;5009987;28;20058;-53
2021/08/02 06:30:09;;;;;;;8.45;3.45;;;14.50;96.70;;;;;;5011275;28;20129;-49
2021/08/02 06:32:40;;;;;;;7.55;3.28;;;14.60;96.60;;;;;;5008822;28;20076;-50
2021/08/02 06:35:06;;;;;;;9.45;3.40;;;14.60;96.50;;;;;;5010243;28;20491;-50
2021/08/02 06:37:39;;;;;;;9.10;3.25;;;14.60;96.60;;;;;;5010111;28;20340;-53
2021/08/02 06:40:13;;;;;;;7.65;3.10;;;14.70;96.60;;;;;;4994003;28;20038;-52
2021/08/02 06:42:39;;;;;;;7.03;2.97;;;14.70;96.40;;;;;;4990665;28;20072;-50
2021/08/02 06:45:06;;;;;;;9.98;3.60;;;14.70;96.40;;;;;;5010330;28;20060;-52
2021/08/02 06:47:39;;;;;;;9.10;3.30;;;14.80;96.50;;;;;;5008226;28;20056;-52
2021/08/02 06:50:06;;;;;;;10.25;3.38;;;14.80;96.30;;;;;;4990217;28;20061;-52
2021/08/02 06:52:32;;;;;;;8.32;3.10;;;14.80;96.20;;;;;;5008719;28;20045;-53
2021/08/02 06:54:58;;;;;;;6.80;3.20;;;14.80;96.20;;;;;;5009891;28;20041;-53
2021/08/02 06:57:25;;;;;;;7.68;2.78;;;14.80;96.10;;;;;;5011490;28;20499;-49
2021/08/02 06:59:57;;;;;;;9.88;2.53;;;14.90;96.10;;;;;;4977949;28;20045;-51
2021/08/02 07:02:23;;;;;;;5.65;2.78;;;14.90;96.10;;;;;;5009372;28;20069;-50
2021/08/02 07:04:48;;;;;;;7.72;2.50;;;15.00;96.10;;;;;;5010662;28;20073;-53
2021/08/02 07:07:14;;;;;;;7.80;2.33;;;15.00;96.00;;;;;;5008642;28;20046;-53
2021/08/02 07:09:39;;;;;;;11.50;2.58;;;15.10;95.80;;;;;;5005962;28;20391;-53
2021/08/02 07:12:06;;;;;;;8.32;2.25;;;15.10;95.70;;;;;;5008142;28;20136;-53
2021/08/02 07:14:31;;;;;;;8.40;2.17;;;15.20;95.50;;;;;;5009778;28;20468;-52
2021/08/02 07:16:57;;;;;;;7.00;2.13;;;15.30;95.40;;;;;;5010047;28;20034;-51
2021/08/02 07:19:23;;;;;;;7.45;2.42;;;15.40;95.20;;;;;;5010383;28;20494;-54
2021/08/02 07:21:48;;;;;;;12.88;2.55;;;15.40;95.10;;;;;;5009667;28;20038;-52
2021/08/02 07:24:15;;;;;;;7.90;2.20;;;15.50;95.10;;;;;;5010464;28;20053;-51
2021/08/02 07:26:44;;;;;;;10.88;2.40;;;15.50;94.90;;;;;;4974489;28;20046;-52
2021/08/02 07:29:11;;;;;;;7.60;2.10;;;15.60;94.70;;;;;;4993083;28;20104;-53
2021/08/02 07:31:37;;;;;;;4.25;1.95;;;15.60;94.60;;;;;;4993251;28;20073;-51
2021/08/02 07:34:04;;;;;;;11.60;2.25;;;15.70;94.50;;;;;;5011030;28;20088;-55
2021/08/02 07:36:29;;;;;;;6.70;2.30;;;15.90;94.50;;;;;;5008474;28;20129;-51
2021/08/02 07:38:55;;;;;;;5.53;1.60;;;16.10;94.30;;;;;;5010156;28;20141;-51
2021/08/02 07:41:22;;;;;;;11.20;2.10;;;16.20;94.10;;;;;;5007675;28;20046;-53
2021/08/02 07:43:48;;;;;;;6.05;2.10;;;16.40;93.40;;;;;;5007508;28;20053;-54
2021/08/02 07:46:14;;;;;;;5.45;2.05;;;16.60;92.80;;;;;;5010405;28;20100;-54
2021/08/02 07:48:42;;;;;;;5.25;1.67;;;16.70;92.20;;;;;;5009393;28;20037;-53
2021/08/02 07:51:11;;;;;;;6.53;1.77;;;16.80;91.70;;;;;;4993578;28;20494;-52
2021/08/02 07:53:36;;;;;;;9.50;1.63;;;16.90;91.30;;;;;;4992993;28;20038;-53
2021/08/02 07:56:02;;;;;;;5.25;1.67;;;17.00;91.10;;;;;;5008913;28;20128;-51
2021/08/02 07:58:27;;;;;;;11.43;2.38;;;17.00;90.90;;;;;;5009553;28;20091;-50
2021/08/02 08:01:00;;;;;;;7.90;1.77;;;17.10;90.40;;;;;;5009936;28;20065;-50
2021/08/02 08:03:26;;;;;;;7.20;2.28;;;17.20;90.10;;;;;;5009051;28;20417;-53
2021/08/02 08:05:52;;;;;;;8.50;1.90;;;17.30;89.00;;;;;;5008380;28;20506;-51
2021/08/02 08:08:20;;;;;;;7.25;1.75;;;17.50;89.10;;;;;;5011023;28;20030;-54
2021/08/02 08:10:47;;;;;;;4.35;1.40;;;17.60;89.00;;;;;;5009690;28;20087;-54
2021/08/02 08:13:16;;;;;;;6.20;1.60;;;17.70;88.40;;;;;;5009383;28;20116;-54
2021/08/02 08:15:44;;;;;;;10.13;2.53;;;17.70;87.80;;;;;;4996267;28;20044;-55
2021/08/02 08:18:12;;;;;;;5.93;1.70;;;17.70;86.70;;;;;;5008474;28;20042;-52
2021/08/02 08:20:42;;;;;;;6.63;1.70;;;17.50;86.80;;;;;;4985779;28;20471;-55
2021/08/02 08:23:09;;;;;;;9.32;3.15;;;17.20;86.30;;;;;;4995766;28;20141;-55
2021/08/02 08:25:34;;;;;;;7.75;2.00;;;17.10;86.90;;;;;;5013951;28;20466;-55
2021/08/02 08:28:01;;;;;;;6.22;1.90;;;16.90;87.60;;;;;;5010164;28;20030;-55
2021/08/02 08:30:27;;;;;;;8.80;1.77;;;16.80;88.20;;;;;;5013787;28;20041;-53
2021/08/02 08:32:53;;;;;;;6.90;2.30;;;16.70;88.90;;;;;;5012376;28;20482;-53
2021/08/02 08:35:18;;;;;;;9.73;2.08;;;16.60;89.50;;;;;;5012117;28;20044;-54
2021/08/02 08:37:44;;;;;;;6.95;1.75;;;16.70;90.10;;;;;;5012558;28;20038;-55
2021/08/02 08:40:23;;;;;;;6.43;2.00;;;17.00;90.30;;;;;;5013269;28;20053;-53
2021/08/02 08:42:54;;;;;;;10.27;2.33;;;17.20;90.10;;;;;;4991397;28;20096;-55
2021/08/02 08:45:21;;;;;;;7.70;1.83;;;17.50;89.70;;;;;;5009017;28;20125;-53
2021/08/02 08:47:47;;;;;;;6.25;1.70;;;17.60;87.70;;;;;;5007394;28;20487;-54
2021/08/02 08:50:12;;;;;;;5.90;1.58;;;17.60;87.30;;;;;;5014439;28;20084;-55
2021/08/02 08:52:39;;;;;;;5.47;1.65;;;17.50;86.70;;;;;;5012433;28;20070;-55
2021/08/02 08:55:15;;;;;;;4.20;1.90;;;17.30;86.10;;;;;;5011139;28;20126;-55
2021/08/02 08:57:42;;;;;;;6.35;1.80;;;17.10;87.60;;;;;;5007443;28;20503;-53
2021/08/02 09:00:29;;;;;;;6.70;2.17;;;16.80;88.80;;;;;;5011644;28;20073;-52
2021/08/02 09:02:56;;;;;;;5.30;2.15;;;16.60;90.10;;;;;;5011890;28;20396;-52
2021/08/02 09:05:35;;;;;;;7.88;2.25;;;16.40;90.40;;;;;;5014087;28;20048;-54
2021/08/02 09:08:02;;;;;;;8.63;2.95;;;16.30;90.80;;;;;;5012735;28;20038;-54
2021/08/02 09:10:32;;;;;;;8.82;2.30;;;16.20;91.00;;;;;;4968035;28;20908;-54
2021/08/02 09:13:03;;;;;;;5.30;2.20;;;16.10;91.30;;;;;;5011960;28;20054;-52
2021/08/02 09:15:30;;;;;;;6.28;2.13;;;16.10;91.50;;;;;;4995942;28;20434;-54
2021/08/02 09:17:56;;;;;;;5.95;2.38;;;16.10;91.70;;;;;;5007525;28;20380;-55
2021/08/02 09:20:25;;;;;;;9.30;2.40;;;16.10;91.70;;;;;;5013835;28;20049;-54
2021/08/02 09:22:53;;;;;;;3.63;1.58;;;16.20;91.80;;;;;;4994083;28;20439;-56
2021/08/02 09:25:23;;;;;;;6.13;2.00;;;16.30;91.90;;;;;;5014332;28;20073;-55
2021/08/02 09:27:52;;;;;;;8.88;1.95;;;16.30;91.80;;;;;;4996509;28;20761;-54
2021/08/02 09:30:22;;;;;;;10.57;2.38;;;16.40;91.70;;;;;;5009085;28;20044;-55
2021/08/02 09:32:50;;;;;;;8.32;2.15;;;16.40;91.70;;;;;;5009993;28;20034;-54
2021/08/02 09:35:49;;;;;;;8.85;2.13;;;16.50;91.60;;;;;;5011634;28;20046;-50
2021/08/02 09:38:17;;;;;;;4.53;1.95;;;16.60;91.40;;;;;;4981458;28;20599;-50
2021/08/02 09:40:48;;;;;;;6.70;1.80;;;16.80;91.30;;;;;;4994980;28;20061;-52
2021/08/02 09:43:22;;;;;;;8.20;2.00;;;16.90;90.90;;;;;;5012932;28;20085;-52
2021/08/02 09:45:58;;;;;;;7.82;1.80;;;17.10;90.50;;;;;;5010206;28;20092;-53
2021/08/02 09:48:46;;;;;;;7.35;1.75;;;17.20;90.10;;;;;;5007415;28;20042;-51
2021/08/02 09:51:17;;;;;;;7.50;1.80;;;17.30;89.80;;;;;;4989074;28;20049;-55
2021/08/02 09:53:51;;;;;;;7.13;2.05;;;17.40;90.00;;;;;;5006239;28;20061;-54
2021/08/02 09:56:22;;;;;;;4.68;1.75;;;17.50;89.20;;;;;;5009673;28;20092;-55
2021/08/02 09:58:57;;;;;;;5.00;1.77;;;17.60;87.90;;;;;;5008402;28;20490;-55
2021/08/02 10:01:23;;;;;;;6.30;1.73;;;17.70;87.40;;;;;;4979567;28;20072;-54
2021/08/02 10:03:52;;;;;;;3.75;1.40;;;17.70;86.30;;;;;;5007638;28;20069;-52
2021/08/02 10:06:17;;;;;;;5.07;1.77;;;17.70;85.00;;;;;;5009423;28;20041;-54
2021/08/02 10:08:44;;;;;;;3.10;1.40;;;17.70;85.00;;;;;;5008349;28;20048;-55
2021/08/02 10:11:10;;;;;;;7.15;1.50;;;17.80;85.70;;;;;;5011520;28;20041;-56
2021/08/02 10:13:44;;;;;;;4.68;1.35;;;17.90;85.60;;;;;;5011058;28;20046;-56
2021/08/02 10:16:16;;;;;;;5.20;1.50;;;18.10;85.00;;;;;;5010009;28;20042;-55
2021/08/02 10:18:52;;;;;;;6.77;1.80;;;18.30;84.50;;;;;;5012023;28;20042;-54
2021/08/02 10:21:18;;;;;;;5.13;1.35;;;18.40;83.30;;;;;;4969635;28;20069;-54
2021/08/02 10:23:46;;;;;;;5.10;1.20;;;18.40;78.80;;;;;;5011754;28;20401;-53
2021/08/02 10:26:27;;;;;;;2.78;1.15;;;18.50;77.00;;;;;;5009235;28;20454;-54
2021/08/02 10:28:56;;;;;;;4.00;1.20;;;18.70;77.90;;;;;;5010682;28;20038;-54
2021/08/02 10:31:25;;;;;;;4.15;1.60;;;18.90;79.30;;;;;;4999692;28;20072;-57
2021/08/02 10:33:51;;;;;;;2.05;1.27;;;19.10;75.40;;;;;;5000734;28;20773;-55
2021/08/02 10:36:24;;;;;;;4.53;1.70;;;19.10;75.00;;;;;;5005586;28;20050;-56
2021/08/02 10:38:52;;;;;;;6.28;1.52;;;19.30;76.00;;;;;;4993615;28;20042;-55
2021/08/02 10:41:30;;;;;;;3.78;1.65;;;19.50;75.50;;;;;;5009287;28;20100;-54
2021/08/02 10:44:10;;;;;;;2.50;1.20;;;19.60;75.60;;;;;;4991699;28;20053;-54
2021/08/02 10:46:40;;;;;;;4.03;1.35;;;19.80;74.80;;;;;;5010962;28;20049;-55
2021/08/02 10:49:15;;;;;;;6.60;1.50;;;19.90;74.70;;;;;;4993326;28;20128;-53
2021/08/02 10:51:48;;;;;;;4.05;1.25;;;19.80;73.10;;;;;;5008205;28;20034;-55
2021/08/02 10:54:15;;;;;;;4.05;1.52;;;19.60;72.60;;;;;;5012097;28;20149;-54
2021/08/02 10:56:42;;;;;;;4.75;1.35;;;19.40;73.80;;;;;;5008543;28;20057;-55
2021/08/02 10:59:07;;;;;;;3.60;1.20;;;19.50;74.50;;;;;;5012849;28;20419;-53
2021/08/02 11:01:44;;;;;;;4.80;1.88;;;19.50;71.80;;;;;;5013181;28;20052;-56
2021/08/02 11:04:13;;;;;;;4.20;1.15;;;19.70;72.30;;;;;;5013694;28;20076;-53
2021/08/02 11:06:39;;;;;;;3.85;1.52;;;19.80;72.40;;;;;;5008594;28;20050;-54
2021/08/02 11:09:04;;;;;;;4.20;1.50;;;19.90;72.90;;;;;;5009621;28;20052;-56
2021/08/02 11:11:35;;;;;;;4.25;1.65;;;20.00;73.30;;;;;;5006716;28;20140;-55
2021/08/02 11:14:04;;;;;;;5.18;1.70;;;20.00;73.00;;;;;;5002755;28;20485;-55
2021/08/02 11:16:44;;;;;;;4.72;1.27;;;20.10;74.30;;;;;;4994811;28;20073;-56
2021/08/02 11:19:23;;;;;;;3.25;1.30;;;20.10;74.00;;;;;;5010081;28;20038;-55
2021/08/02 11:21:58;;;;;;;3.70;1.30;;;20.20;74.20;;;;;;5006115;28;20073;-55
2021/08/02 11:24:25;;;;;;;3.53;1.10;;;20.30;74.10;;;;;;4977421;28;20053;-53
2021/08/02 11:26:53;;;;;;;2.65;1.08;;;20.30;71.90;;;;;;5013209;28;20049;-55
2021/08/02 11:29:26;;;;;;;4.95;1.02;;;20.00;69.50;;;;;;5011719;28;20312;-55
2021/08/02 11:32:10;;;;;;;3.30;1.30;;;19.80;69.70;;;;;;4995634;28;20033;-56
2021/08/02 11:34:40;;;;;;;5.05;1.25;;;19.70;69.70;;;;;;4975837;28;20467;-55
2021/08/02 11:37:07;;;;;;;4.75;1.30;;;19.60;71.20;;;;;;5010951;28;20049;-56
2021/08/02 11:39:41;;;;;;;5.93;1.40;;;19.60;72.00;;;;;;5011795;28;20517;-56
2021/08/02 11:42:16;;;;;;;7.00;1.60;;;19.70;70.50;;;;;;5003098;28;20038;-56
2021/08/02 11:44:44;;;;;;;4.25;1.40;;;19.80;71.20;;;;;;5012712;28;20041;-55
2021/08/02 11:47:16;;;;;;;6.13;1.30;;;19.90;70.70;;;;;;5012099;28;20049;-56
2021/08/02 11:49:43;;;;;;;7.30;1.30;;;19.90;70.90;;;;;;5011464;28;20105;-54
2021/08/02 11:52:18;;;;;;;5.25;1.20;;;20.00;71.20;;;;;;5011944;28;20042;-56
2021/08/02 11:54:46;;;;;;;3.60;1.42;;;20.10;71.10;;;;;;4995461;28;20597;-56
2021/08/02 11:57:19;;;;;;;3.55;1.42;;;20.30;71.30;;;;;;5013619;28;20117;-54
2021/08/02 12:00:02;;;;;;;4.85;1.27;;;20.30;70.10;;;;;;5014460;28;20034;-55
2021/08/02 12:02:37;;;;;;;4.43;1.55;;;20.10;69.40;;;;;;4996171;28;20052;-55
2021/08/02 12:05:08;;;;;;;1.92;1.10;;;20.20;70.40;;;;;;5013914;28;20100;-55
2021/08/02 12:07:34;;;;;;;4.55;1.52;;;20.20;71.00;;;;;;4997099;28;20050;-56
2021/08/02 12:10:17;;;;;;;2.90;1.23;;;20.30;70.10;;;;;;4980524;28;20034;-54
2021/08/02 12:13:04;;;;;;;3.78;1.40;;;20.30;69.60;;;;;;4979776;28;20045;-56
2021/08/02 12:15:33;;;;;;;3.50;1.17;;;20.00;69.00;;;;;;5002383;28;20104;-56
2021/08/02 12:18:00;;;;;;;3.55;1.15;;;19.80;68.80;;;;;;5015198;28;20453;-56
2021/08/02 12:20:34;;;;;;;1.95;1.05;;;19.60;69.70;;;;;;5014059;28;20042;-55
2021/08/02 12:23:01;;;;;;;2.47;1.23;;;19.40;69.30;;;;;;5016166;28;20132;-55
2021/08/02 12:25:42;;;;;;;1.80;1.17;;;19.20;69.80;;;;;;5011811;28;20112;-56
2021/08/02 12:28:09;;;;;;;2.53;1.25;;;19.00;69.10;;;;;;5013914;28;20566;-56
2021/08/02 12:30:39;;;;;;;3.33;1.23;;;18.90;70.90;;;;;;4996079;28;20045;-56
2021/08/02 12:33:09;;;;;;;4.35;1.17;;;18.90;71.90;;;;;;4963992;28;20048;-56
2021/08/02 12:35:36;;;;;;;4.32;1.40;;;18.90;72.10;;;;;;5014256;28;20057;-55
2021/08/02 12:38:05;;;;;;;3.97;1.33;;;19.00;72.50;;;;;;4994303;28;20068;-55
2021/08/02 12:40:35;;;;;;;3.13;1.20;;;19.20;72.90;;;;;;4996854;28;20042;-56
2021/08/02 12:43:04;;;;;;;3.97;1.15;;;19.40;74.00;;;;;;4992320;28;20464;-55
2021/08/02 12:45:31;;;;;;;1.60;0.88;;;19.60;73.70;;;;;;4994309;28;20406;-55
2021/08/02 12:48:00;;;;;;;2.33;1.00;;;19.90;72.80;;;;;;5012381;28;20102;-55
2021/08/02 12:50:26;;;;;;;3.05;0.95;;;20.00;72.20;;;;;;5014069;28;20038;-55
2021/08/02 12:52:52;;;;;;;3.88;1.00;;;20.10;71.40;;;;;;5012816;28;20052;-54
2021/08/02 12:55:18;;;;;;;3.45;1.10;;;20.10;71.60;;;;;;5012239;28;20453;-56
2021/08/02 12:57:46;;;;;;;2.47;1.02;;;19.90;71.60;;;;;;4993125;28;20129;-56
2021/08/02 13:00:15;;;;;;;3.35;1.05;;;19.90;70.30;;;;;;5013896;28;20113;-55
2021/08/02 13:02:44;;;;;;;2.88;0.95;;;19.90;71.10;;;;;;5012773;28;20073;-55